createdAt,value
2023-03-21T00:00:59.526Z,48.88
2023-03-21T00:03:26.729Z,48.90
2023-03-21T00:05:55.124Z,49.25
2023-03-21T00:08:24.351Z,49.47
2023-03-21T00:10:57.058Z,48.70
2023-03-21T00:13:26.411Z,48.80
2023-03-21T00:16:05.977Z,48.85
2023-03-21T00:18:46.649Z,49.00
2023-03-21T00:24:05.822Z,49.20
2023-03-21T00:26:33.104Z,48.95
2023-03-21T00:29:00.311Z,49.10
2023-03-21T00:31:27.316Z,49.28
2023-03-21T00:33:54.310Z,48.97
2023-03-21T00:36:26.105Z,48.47
2023-03-21T00:38:53.462Z,48.92
2023-03-21T00:41:35.229Z,48.63
2023-03-21T00:44:07.859Z,48.55
2023-03-21T00:46:43.988Z,49.08
2023-03-21T00:49:13.011Z,48.75
2023-03-21T00:51:43.911Z,48.92
2023-03-21T00:54:12.799Z,48.70
2023-03-21T00:56:41.185Z,49.20
2023-03-21T00:59:08.387Z,48.55
2023-03-21T01:01:36.689Z,48.72
2023-03-21T01:04:10.972Z,48.67
2023-03-21T01:06:39.602Z,48.80
2023-03-21T01:09:11.760Z,48.85
2023-03-21T01:11:38.643Z,48.80
2023-03-21T01:14:20.906Z,48.88
2023-03-21T01:16:49.268Z,48.42
2023-03-21T01:19:25.414Z,49.25
2023-03-21T01:21:54.969Z,48.88
2023-03-21T01:24:23.318Z,48.72
2023-03-21T01:26:50.237Z,48.97
2023-03-21T01:29:17.295Z,48.72
2023-03-21T01:31:44.221Z,48.67
2023-03-21T01:34:12.472Z,48.95
2023-03-21T01:36:39.721Z,48.22
2023-03-21T01:39:11.608Z,48.42
2023-03-21T01:41:44.022Z,48.85
2023-03-21T01:44:53.234Z,48.95
2023-03-21T01:47:21.492Z,48.65
2023-03-21T01:50:09.400Z,49.08
2023-03-21T01:52:46.724Z,49.38
2023-03-21T01:55:18.860Z,48.75
2023-03-21T01:58:06.854Z,48.60
2023-03-21T02:00:50.905Z,49.08
2023-03-21T02:03:50.504Z,48.78
2023-03-21T02:06:47.044Z,49.00
2023-03-21T02:09:33.628Z,49.08
2023-03-21T02:12:02.486Z,49.30
2023-03-21T02:14:36.149Z,48.67
2023-03-21T02:17:35.731Z,48.53
2023-03-21T02:20:31.805Z,48.97
2023-03-21T02:23:36.928Z,48.97
2023-03-21T02:26:41.212Z,49.08
2023-03-21T02:29:28.522Z,48.75
2023-03-21T02:32:16.507Z,49.00
2023-03-21T02:35:11.276Z,48.65
2023-03-21T02:37:46.812Z,49.15
2023-03-21T02:40:25.783Z,49.22
2023-03-21T02:43:01.547Z,49.30
2023-03-21T02:45:40.861Z,48.90
2023-03-21T02:48:20.275Z,49.15
2023-03-21T02:50:57.142Z,49.35
2023-03-21T02:53:31.741Z,49.30
2023-03-21T02:56:00.450Z,49.35
2023-03-21T02:58:30.831Z,49.42
2023-03-21T03:00:59.009Z,48.53
2023-03-21T03:03:37.198Z,49.40
2023-03-21T03:06:14.599Z,49.00
2023-03-21T03:09:02.683Z,49.45
2023-03-21T03:11:34.261Z,48.60
2023-03-21T03:14:53.010Z,48.97
2023-03-21T03:17:37.352Z,48.72
2023-03-21T03:20:23.733Z,49.22
2023-03-21T03:22:59.784Z,49.05
2023-03-21T03:25:42.379Z,49.17
2023-03-21T03:28:15.571Z,49.20
2023-03-21T03:30:57.396Z,49.33
2023-03-21T03:33:39.004Z,48.92
2023-03-21T03:36:12.655Z,48.83
2023-03-21T03:38:44.019Z,49.10
2023-03-21T03:41:19.485Z,49.22
2023-03-21T03:43:54.984Z,49.05
2023-03-21T03:46:30.110Z,49.85
2023-03-21T03:49:01.183Z,49.40
2023-03-21T03:51:32.641Z,49.42
2023-03-21T03:54:13.154Z,49.60
2023-03-21T03:56:42.710Z,50.17
2023-03-21T03:59:09.691Z,49.47
2023-03-21T04:01:50.638Z,49.53
2023-03-21T04:04:18.028Z,49.60
2023-03-21T04:06:51.629Z,49.30
2023-03-21T04:09:31.357Z,49.15
2023-03-21T04:12:06.105Z,49.53
2023-03-21T04:14:44.064Z,49.22
2023-03-21T04:17:12.248Z,49.47
2023-03-21T04:19:39.282Z,49.30
2023-03-21T04:22:06.602Z,49.30
2023-03-21T04:24:39.499Z,49.67
2023-03-21T04:27:07.828Z,49.80
2023-03-21T04:29:40.708Z,49.33
2023-03-21T04:32:39.580Z,49.20
2023-03-21T04:35:13.706Z,49.63
2023-03-21T04:37:41.748Z,49.38
2023-03-21T04:40:17.797Z,49.50
2023-03-21T04:42:48.059Z,49.88
2023-03-21T04:45:16.512Z,49.90
2023-03-21T04:47:46.154Z,49.20
2023-03-21T04:50:13.790Z,49.97
2023-03-21T04:52:40.840Z,49.45
2023-03-21T04:55:10.446Z,49.97
2023-03-21T04:57:39.459Z,49.47
2023-03-21T05:00:14.742Z,49.97
2023-03-21T05:02:41.805Z,49.63
2023-03-21T05:05:11.448Z,50.15
2023-03-21T05:07:38.751Z,50.00
2023-03-21T05:10:08.019Z,49.67
2023-03-21T05:12:35.895Z,49.85
2023-03-21T05:15:03.060Z,49.40
2023-03-21T05:17:31.462Z,49.85
2023-03-21T05:19:59.816Z,49.78
2023-03-21T05:22:29.045Z,49.40
2023-03-21T05:24:56.854Z,49.88
2023-03-21T05:27:54.156Z,49.88
2023-03-21T05:30:26.703Z,49.90
2023-03-21T05:32:59.538Z,49.28
2023-03-21T05:35:27.097Z,49.25
2023-03-21T05:37:56.468Z,49.42
2023-03-21T05:40:25.175Z,49.22
2023-03-21T05:42:55.997Z,49.55
2023-03-21T05:45:23.564Z,48.88
2023-03-21T05:47:51.701Z,48.85
2023-03-21T05:50:22.743Z,49.10
2023-03-21T05:53:03.656Z,49.58
2023-03-21T05:55:31.153Z,49.22
2023-03-21T05:57:58.296Z,49.65
2023-03-21T06:00:30.502Z,49.50
2023-03-21T06:03:22.242Z,49.53
2023-03-21T06:06:04.465Z,49.47
2023-03-21T06:08:39.133Z,49.28
2023-03-21T06:11:12.444Z,49.83
2023-03-21T06:13:39.478Z,48.95
2023-03-21T06:16:07.322Z,49.47
2023-03-21T06:18:36.222Z,49.95
2023-03-21T06:21:20.723Z,50.00
2023-03-21T06:23:51.751Z,49.53
2023-03-21T06:26:23.300Z,49.90
2023-03-21T06:28:53.655Z,49.47
2023-03-21T06:31:22.774Z,49.45
2023-03-21T06:33:51.880Z,48.97
2023-03-21T06:36:20.644Z,50.00
2023-03-21T06:38:48.986Z,49.95
2023-03-21T06:41:17.085Z,50.85
2023-03-21T06:43:51.474Z,50.33
2023-03-21T06:46:19.118Z,49.83
2023-03-21T06:48:46.403Z,50.45
2023-03-21T06:51:13.627Z,50.35
2023-03-21T06:53:50.737Z,51.15
2023-03-21T06:56:23.868Z,51.42
2023-03-21T06:58:51.009Z,50.80
2023-03-21T07:01:36.670Z,50.72
2023-03-21T07:04:07.091Z,50.53
2023-03-21T07:06:36.103Z,50.38
2023-03-21T07:09:05.645Z,50.50
2023-03-21T07:11:35.545Z,50.78
2023-03-21T07:14:03.464Z,50.65
2023-03-21T07:16:30.872Z,51.08
2023-03-21T07:18:57.812Z,51.10
2023-03-21T07:21:24.794Z,50.53
2023-03-21T07:23:52.150Z,50.70
2023-03-21T07:26:20.725Z,50.22
2023-03-21T07:28:47.653Z,50.20
2023-03-21T07:31:16.699Z,50.88
2023-03-21T07:33:43.660Z,50.67
2023-03-21T07:36:13.273Z,50.38
2023-03-21T07:38:41.231Z,50.67
2023-03-21T07:41:08.345Z,49.85
2023-03-21T07:43:39.003Z,50.17
2023-03-21T07:46:09.685Z,49.65
2023-03-21T07:48:37.336Z,49.95
2023-03-21T07:51:06.590Z,50.60
2023-03-21T07:53:35.520Z,50.63
2023-03-21T07:56:02.757Z,49.90
2023-03-21T07:58:29.810Z,49.70
2023-03-21T08:00:58.890Z,50.67
2023-03-21T08:03:30.090Z,50.15
2023-03-21T08:05:59.264Z,49.95
2023-03-21T08:08:26.179Z,50.08
2023-03-21T08:10:53.176Z,49.70
2023-03-21T08:13:20.027Z,50.05
2023-03-21T08:15:46.985Z,49.50
2023-03-21T08:18:15.318Z,49.92
2023-03-21T08:20:42.258Z,49.53
2023-03-21T08:23:09.354Z,49.85
2023-03-21T08:25:36.858Z,49.60
2023-03-21T08:28:04.429Z,49.95
2023-03-21T08:30:31.393Z,49.20
2023-03-21T08:33:01.226Z,49.05
2023-03-21T08:35:31.529Z,49.15
2023-03-21T08:37:58.430Z,49.20
2023-03-21T08:40:25.897Z,49.10
2023-03-21T08:42:52.857Z,49.47
2023-03-21T08:45:20.514Z,50.05
2023-03-21T08:47:47.655Z,50.28
2023-03-21T08:50:17.726Z,49.25
2023-03-21T08:52:46.729Z,49.60
2023-03-21T08:55:15.788Z,49.45
2023-03-21T08:57:42.959Z,49.53
2023-03-21T09:00:14.537Z,49.05
2023-03-21T09:02:42.672Z,49.55
2023-03-21T09:05:12.057Z,49.38
2023-03-21T09:07:39.619Z,49.42
2023-03-21T09:10:26.166Z,49.05
2023-03-21T09:12:54.916Z,49.20
2023-03-21T09:15:24.868Z,49.13
2023-03-21T09:17:54.324Z,49.83
2023-03-21T09:20:30.657Z,50.47
2023-03-21T09:22:59.234Z,49.03
2023-03-21T09:25:31.306Z,49.33
2023-03-21T09:27:59.073Z,48.85
2023-03-21T09:30:26.669Z,49.30
2023-03-21T09:32:55.969Z,49.17
2023-03-21T09:35:24.417Z,48.90
2023-03-21T09:37:51.589Z,49.10
2023-03-21T09:40:21.586Z,49.25
2023-03-21T09:42:59.966Z,49.05
2023-03-21T09:45:37.207Z,48.80
2023-03-21T09:48:07.800Z,49.45
2023-03-21T09:50:38.262Z,48.77
2023-03-21T09:53:11.361Z,49.13
2023-03-21T09:55:41.008Z,49.28
2023-03-21T09:58:32.348Z,49.08
2023-03-21T10:01:05.256Z,49.60
2023-03-21T10:03:36.509Z,48.75
2023-03-21T10:06:11.412Z,49.08
2023-03-21T10:08:42.026Z,48.53
2023-03-21T10:11:14.600Z,49.13
2023-03-21T10:13:46.577Z,48.70
2023-03-21T10:16:16.630Z,49.03
2023-03-21T10:18:47.206Z,49.10
2023-03-21T10:21:47.437Z,49.33
2023-03-21T10:24:12.217Z,49.38
2023-03-21T10:26:39.353Z,49.33
2023-03-21T10:29:13.091Z,48.78
2023-03-21T10:31:42.048Z,49.05
2023-03-21T10:34:15.843Z,48.92
2023-03-21T10:36:42.892Z,49.50
2023-03-21T10:39:19.434Z,49.28
2023-03-21T10:41:46.787Z,49.10
2023-03-21T10:44:18.045Z,49.20
2023-03-21T10:49:19.093Z,48.47
2023-03-21T10:51:48.001Z,49.03
2023-03-21T10:54:18.157Z,48.95
2023-03-21T10:56:49.830Z,49.15
2023-03-21T10:59:22.826Z,48.88
2023-03-21T11:01:52.315Z,49.45
2023-03-21T11:04:22.358Z,48.83
2023-03-21T11:06:52.992Z,49.28
2023-03-21T11:09:25.056Z,49.13
2023-03-21T11:11:54.480Z,49.08
2023-03-21T11:14:33.067Z,49.08
2023-03-21T11:17:00.369Z,49.40
2023-03-21T11:19:32.578Z,49.15
2023-03-21T11:22:05.599Z,49.00
2023-03-21T11:24:33.373Z,49.00
2023-03-21T11:27:07.174Z,49.30
2023-03-21T11:29:38.931Z,49.40
2023-03-21T11:32:11.947Z,49.53
2023-03-21T11:34:46.915Z,49.42
2023-03-21T11:37:21.131Z,49.55
2023-03-21T11:39:48.083Z,49.58
2023-03-21T11:42:32.200Z,49.03
2023-03-21T11:45:11.926Z,49.63
2023-03-21T11:47:39.933Z,49.35
2023-03-21T11:50:17.696Z,49.42
2023-03-21T11:52:57.936Z,49.35
2023-03-21T11:55:37.146Z,49.65
2023-03-21T11:58:24.947Z,49.33
2023-03-21T12:01:02.730Z,49.20
2023-03-21T12:04:12.710Z,49.65
2023-03-21T12:06:45.848Z,49.45
2023-03-21T12:09:26.650Z,49.42
2023-03-21T12:12:03.448Z,49.30
2023-03-21T12:14:38.986Z,49.67
2023-03-21T12:17:16.712Z,49.38
2023-03-21T12:20:00.927Z,49.55
2023-03-21T12:22:38.539Z,49.38
2023-03-21T12:25:11.150Z,49.53
2023-03-21T12:27:45.808Z,49.50
2023-03-21T12:30:25.321Z,50.08
2023-03-21T12:33:07.802Z,49.60
2023-03-21T12:35:48.939Z,50.17
2023-03-21T12:38:18.132Z,50.58
2023-03-21T12:40:59.775Z,50.30
2023-03-21T12:43:37.775Z,50.72
2023-03-21T12:46:11.768Z,50.80
2023-03-21T12:48:44.741Z,50.75
2023-03-21T12:51:15.116Z,51.25
2023-03-21T12:54:03.271Z,51.27
2023-03-21T12:56:34.026Z,51.40
2023-03-21T12:59:08.345Z,51.42
2023-03-21T13:01:39.195Z,52.70
2023-03-21T13:04:21.517Z,52.25
2023-03-21T13:06:52.561Z,51.80
2023-03-21T13:09:37.740Z,51.97
2023-03-21T13:12:16.429Z,51.80
2023-03-21T13:14:52.781Z,51.97
2023-03-21T13:17:26.162Z,51.72
2023-03-21T13:20:01.717Z,51.67
2023-03-21T13:22:30.343Z,52.15
2023-03-21T13:25:01.073Z,51.35
2023-03-21T13:27:30.610Z,51.30
2023-03-21T13:30:06.606Z,51.15
2023-03-21T13:32:39.975Z,51.55
2023-03-21T13:35:17.010Z,51.20
2023-03-21T13:37:51.839Z,51.40
2023-03-21T13:40:24.767Z,51.55
2023-03-21T13:42:54.126Z,50.88
2023-03-21T13:45:29.041Z,51.60
2023-03-21T13:47:57.535Z,52.45
2023-03-21T13:50:33.875Z,52.17
2023-03-21T13:53:19.791Z,51.83
2023-03-21T13:55:57.770Z,51.50
2023-03-21T13:58:32.749Z,51.80
2023-03-21T14:01:14.303Z,51.65
2023-03-21T14:03:42.041Z,51.47
2023-03-21T14:06:11.192Z,51.63
2023-03-21T14:08:41.034Z,51.83
2023-03-21T14:11:12.907Z,51.70
2023-03-21T14:13:50.774Z,51.25
2023-03-21T14:16:19.250Z,51.38
2023-03-21T14:18:55.815Z,51.42
2023-03-21T14:21:26.294Z,51.05
2023-03-21T14:23:58.523Z,51.15
2023-03-21T14:26:27.378Z,50.47
2023-03-21T14:28:55.425Z,50.72
2023-03-21T14:31:22.622Z,50.78
2023-03-21T14:33:54.095Z,51.20
2023-03-21T14:36:24.231Z,50.72
2023-03-21T14:39:02.230Z,50.40
2023-03-21T14:41:31.456Z,50.42
2023-03-21T14:44:11.316Z,50.58
2023-03-21T14:46:38.627Z,51.05
2023-03-21T14:49:20.724Z,50.53
2023-03-21T14:51:48.513Z,50.75
2023-03-21T14:54:18.657Z,51.35
2023-03-21T14:56:50.815Z,50.30
2023-03-21T14:59:21.392Z,50.67
2023-03-21T15:01:51.224Z,50.45
2023-03-21T15:04:19.869Z,50.45
2023-03-21T15:06:52.373Z,50.53
2023-03-21T15:09:23.338Z,50.70
2023-03-21T15:11:51.986Z,50.65
2023-03-21T15:14:23.513Z,50.38
2023-03-21T15:16:51.064Z,50.53
2023-03-21T15:19:23.625Z,50.88
2023-03-21T15:21:55.201Z,50.65
2023-03-21T15:24:27.494Z,50.85
2023-03-21T15:26:59.190Z,50.35
2023-03-21T15:29:27.419Z,50.95
2023-03-21T15:31:54.675Z,50.90
2023-03-21T15:34:24.567Z,51.38
2023-03-21T15:36:56.623Z,50.97
2023-03-21T15:39:27.394Z,51.03
2023-03-21T15:41:59.884Z,51.35
2023-03-21T15:44:27.955Z,51.05
2023-03-21T15:46:55.882Z,50.90
2023-03-21T15:49:30.089Z,50.92
2023-03-21T15:52:03.087Z,50.97
2023-03-21T15:54:34.209Z,50.75
2023-03-21T15:57:04.929Z,50.28
2023-03-21T15:59:35.169Z,51.35
2023-03-21T16:02:03.824Z,50.63
2023-03-21T16:04:32.544Z,51.25
2023-03-21T16:07:01.551Z,50.92
2023-03-21T16:09:38.047Z,50.75
2023-03-21T16:12:11.141Z,51.60
2023-03-21T16:14:38.566Z,51.88
2023-03-21T16:17:23.090Z,51.30
2023-03-21T16:19:50.041Z,51.47
2023-03-21T16:22:17.224Z,50.92
2023-03-21T16:24:44.229Z,51.28
2023-03-21T16:27:13.006Z,51.10
2023-03-21T16:29:39.988Z,51.05
2023-03-21T16:32:14.782Z,51.20
2023-03-21T16:34:42.876Z,50.70
2023-03-21T16:37:11.329Z,50.90
2023-03-21T16:39:38.587Z,51.05
2023-03-21T16:42:05.870Z,50.92
2023-03-21T16:44:35.726Z,51.15
2023-03-21T16:47:02.802Z,51.03
2023-03-21T16:49:29.885Z,51.42
2023-03-21T16:51:57.429Z,51.67
2023-03-21T16:54:24.535Z,50.95
2023-03-21T16:56:53.963Z,51.38
2023-03-21T16:59:21.751Z,51.40
2023-03-21T17:01:50.604Z,51.10
2023-03-21T17:04:18.386Z,51.00
2023-03-21T17:06:47.462Z,51.05
2023-03-21T17:09:16.595Z,51.55
2023-03-21T17:11:44.341Z,51.30
2023-03-21T17:14:12.990Z,52.00
2023-03-21T17:16:43.132Z,51.20
2023-03-21T17:19:14.286Z,51.83
2023-03-21T17:21:42.298Z,52.13
2023-03-21T17:24:09.620Z,52.55
2023-03-21T17:26:36.955Z,51.80
2023-03-21T17:29:04.324Z,51.63
2023-03-21T17:31:34.002Z,52.78
2023-03-21T17:34:03.507Z,52.33
2023-03-21T17:36:34.887Z,52.70
2023-03-21T17:39:02.211Z,52.97
2023-03-21T17:41:29.276Z,53.00
2023-03-21T17:43:57.006Z,52.70
2023-03-21T17:46:26.183Z,52.40
2023-03-21T17:48:53.787Z,52.05
2023-03-21T17:51:23.102Z,52.83
2023-03-21T17:53:51.486Z,51.97
2023-03-21T17:56:26.185Z,53.33
2023-03-21T17:58:53.524Z,52.13
2023-03-21T18:01:21.180Z,52.75
2023-03-21T18:03:48.199Z,53.40
2023-03-21T18:06:18.200Z,52.88
2023-03-21T18:08:45.459Z,53.05
2023-03-21T18:11:14.803Z,52.53
2023-03-21T18:13:42.980Z,53.15
2023-03-21T18:16:13.212Z,52.45
2023-03-21T18:18:40.632Z,52.05
2023-03-21T18:21:10.870Z,52.47
2023-03-21T18:23:38.009Z,52.58
2023-03-21T18:26:05.374Z,52.63
2023-03-21T18:28:35.171Z,53.20
2023-03-21T18:31:15.766Z,51.83
2023-03-21T18:33:46.496Z,53.00
2023-03-21T18:36:16.481Z,52.88
2023-03-21T18:38:43.880Z,53.00
2023-03-21T18:41:11.496Z,52.35
2023-03-21T18:44:01.109Z,53.55
2023-03-21T18:46:27.288Z,52.78
2023-03-21T18:48:55.286Z,52.55
2023-03-21T18:51:22.911Z,52.40
2023-03-21T18:53:49.853Z,52.83
2023-03-21T18:59:05.888Z,53.75
2023-03-21T19:01:32.957Z,53.45
2023-03-21T19:06:47.605Z,53.03
2023-03-21T19:09:14.940Z,52.47
2023-03-21T19:11:42.751Z,52.80
2023-03-21T19:14:11.719Z,53.13
2023-03-21T19:17:14.925Z,52.63
2023-03-21T19:19:27.880Z,52.90
2023-03-21T19:21:54.958Z,53.22
2023-03-21T19:24:28.378Z,52.95
2023-03-21T19:26:55.761Z,53.15
2023-03-21T19:29:24.900Z,53.25
2023-03-21T19:31:52.489Z,54.28
2023-03-21T19:34:19.688Z,53.42
2023-03-21T19:36:51.438Z,54.53
2023-03-21T19:39:22.135Z,53.63
2023-03-21T19:41:50.087Z,53.00
2023-03-21T19:44:17.533Z,54.72
2023-03-21T19:46:46.262Z,53.33
2023-03-21T19:49:13.081Z,53.63
2023-03-21T19:51:40.733Z,53.53
2023-03-21T19:54:07.980Z,53.78
2023-03-21T19:56:35.034Z,53.55
2023-03-21T19:59:03.289Z,54.60
2023-03-21T20:01:32.453Z,53.78
2023-03-21T20:04:00.867Z,54.00
2023-03-21T20:06:28.220Z,54.17
2023-03-21T20:09:41.252Z,53.75
2023-03-21T20:11:43.105Z,53.78
2023-03-21T20:14:10.209Z,54.67
2023-03-21T20:16:37.521Z,54.20
2023-03-21T20:19:08.930Z,54.55
2023-03-21T20:24:17.202Z,53.80
2023-03-21T20:26:45.200Z,53.47
2023-03-21T20:30:07.095Z,54.20
2023-03-21T20:31:59.933Z,53.92
2023-03-21T20:34:28.801Z,54.75
2023-03-21T20:36:58.513Z,53.40
2023-03-21T20:39:28.046Z,53.35
2023-03-21T20:41:56.358Z,53.75
2023-03-21T20:47:10.586Z,53.85
2023-03-21T20:49:39.078Z,54.10
2023-03-21T20:54:54.076Z,53.25
2023-03-21T20:57:21.266Z,53.78
2023-03-21T20:59:48.406Z,53.88
2023-03-21T21:02:15.973Z,52.97
2023-03-21T21:05:08.129Z,53.55
2023-03-21T21:07:32.998Z,54.38
2023-03-21T21:10:00.002Z,53.90
2023-03-21T21:12:28.650Z,53.55
2023-03-21T21:14:56.198Z,54.80
2023-03-21T21:17:46.636Z,53.28
2023-03-21T21:20:16.942Z,53.10
2023-03-21T21:22:46.064Z,53.67
2023-03-21T21:25:24.070Z,53.85
2023-03-21T21:27:53.891Z,53.65
2023-03-21T21:30:21.224Z,53.35
2023-03-21T21:32:49.387Z,53.28
2023-03-21T21:35:19.747Z,53.40
2023-03-21T21:37:46.783Z,53.30
2023-03-21T21:40:15.894Z,53.65
2023-03-21T21:42:43.929Z,53.33
2023-03-21T21:45:12.744Z,53.25
2023-03-21T21:47:40.140Z,53.58
2023-03-21T21:50:08.091Z,53.35
2023-03-21T21:52:37.416Z,53.00
2023-03-21T21:55:05.745Z,53.78
2023-03-21T21:57:34.558Z,53.50
2023-03-21T22:00:06.671Z,53.20
2023-03-21T22:02:39.006Z,52.88
2023-03-21T22:05:07.804Z,53.92
2023-03-21T22:07:38.043Z,53.03
2023-03-21T22:10:06.655Z,53.63
2023-03-21T22:12:33.761Z,52.78
2023-03-21T22:15:01.044Z,53.03
2023-03-21T22:17:28.109Z,53.22
2023-03-21T22:20:04.996Z,53.60
2023-03-21T22:22:33.570Z,53.05
2023-03-21T22:25:02.017Z,53.22
2023-03-21T22:27:28.948Z,53.08
2023-03-21T22:29:56.185Z,53.33
2023-03-21T22:32:23.503Z,52.80
2023-03-21T22:34:50.530Z,52.88
2023-03-21T22:37:17.371Z,52.92
2023-03-21T22:39:44.309Z,52.65
2023-03-21T22:42:12.942Z,52.40
2023-03-21T22:44:39.865Z,52.78
2023-03-21T22:47:09.169Z,53.28
2023-03-21T22:49:36.367Z,53.45
2023-03-21T22:52:04.251Z,54.63
2023-03-21T22:54:31.305Z,54.25
2023-03-21T22:56:58.247Z,52.35
2023-03-21T22:59:27.106Z,52.15
2023-03-21T23:01:54.156Z,52.97
2023-03-21T23:04:21.519Z,53.15
2023-03-21T23:06:49.040Z,54.22
2023-03-21T23:09:17.813Z,52.80
2023-03-21T23:11:49.028Z,53.50
2023-03-21T23:14:16.626Z,53.05
2023-03-21T23:16:45.312Z,54.22
2023-03-21T23:19:12.663Z,53.22
2023-03-21T23:21:40.102Z,53.35
2023-03-21T23:24:08.897Z,53.20
2023-03-21T23:26:36.280Z,53.65
2023-03-21T23:29:03.900Z,53.40
2023-03-21T23:31:32.933Z,52.60
2023-03-21T23:34:01.736Z,53.45
2023-03-21T23:36:29.575Z,52.95
2023-03-21T23:38:57.698Z,52.90
2023-03-21T23:41:25.264Z,52.85
2023-03-21T23:43:52.188Z,53.05
2023-03-21T23:46:20.063Z,52.65
2023-03-21T23:48:47.314Z,52.65
2023-03-21T23:51:17.317Z,52.65
2023-03-21T23:53:44.943Z,53.40
2023-03-21T23:56:13.730Z,52.53
2023-03-21T23:58:41.039Z,52.92
